Sichem Singapore — 9HA4414 — position and weather

sailwx.info

Track history (hours):
 
Tides and Currents Weather Stations Pressure Air Temp Water Temp Dewpoint Dewpoint Depression Visibility Wind Speed Wind Dir Waves Ship Positions

Sichem Singapore

Last reported at 2017-Oct-18 10:24 UTC. Time now 2017-Oct-18 20:26 UTC.
Position N 35°48' E 030°20'.

Length 128 m; draft 5.2 m.

Type: Tanker. MMSI: 249880000.

Date/timePositionNaut miles runAvg speedWind from/ knotsBaromVisibWave heightAir tempDewpointWater temp
2017-Oct-18 10:24N 35°48' E 030°20'513.2
2017-Oct-18 10:00N 35°49' E 030°26'713.1
2017-Oct-18 09:30N 35°49' E 030°34'613.0
2017-Oct-18 09:00N 35°50' E 030°42'612.9
2017-Oct-18 08:30N 35°50' E 030°50'612.7
2017-Oct-18 08:00N 35°51' E 030°58'1212.8
2017-Oct-18 07:04N 35°51' E 031°13'2712.8
2017-Oct-18 04:57N 35°52' E 031°46'612.9
2017-Oct-18 04:29N 35°52' E 031°53'  
Track history (hours):
 
Tides and Currents Weather Stations Pressure Air Temp Water Temp Dewpoint Dewpoint Depression Visibility Wind Speed Wind Dir Waves Ship Positions

Sichem Singapore

Last reported at 2017-Oct-18 10:24 UTC. Time now 2017-Oct-18 20:26 UTC.
Position N 35°48' E 030°20'.

Length 128 m; draft 5.2 m.

Type: Tanker. MMSI: 249880000.

Date/timePositionNaut miles runAvg speedWind from/ knotsBaromVisibWave heightAir tempDewpointWater temp
2017-Oct-18 10:24N 35°48' E 030°20'513.2
2017-Oct-18 10:00N 35°49' E 030°26'713.1
2017-Oct-18 09:30N 35°49' E 030°34'613.0
2017-Oct-18 09:00N 35°50' E 030°42'612.9
2017-Oct-18 08:30N 35°50' E 030°50'612.7
2017-Oct-18 08:00N 35°51' E 030°58'1212.8
2017-Oct-18 07:04N 35°51' E 031°13'2712.8
2017-Oct-18 04:57N 35°52' E 031°46'612.9
2017-Oct-18 04:29N 35°52' E 031°53'  

Dump ship's entire track history